Time;durP1;ratioP1;P1;durP2;ratioP2;P2;SDS_P1;SDS_P2;PMS_P1;PMS_P2;Temp;Humidity;BMP_temperature;BMP_pressure;BME280_temperature;BME280_humidity;BME280_pressure;Samples;Min_cycle;Max_cycle;Signal;HPM_P1;HPM_P2
2021/05/16 00:02:43;;;;;;;3.85;1.67;;;9.70;87.10;;;;;;5015828;28;20480;-88
2021/05/16 00:08:32;;;;;;;2.63;1.60;;;9.80;87.20;;;;;;5015759;28;20033;-88
2021/05/16 00:14:20;;;;;;;3.55;1.60;;;9.90;87.40;;;;;;5015606;28;20033;-88
2021/05/16 00:20:14;;;;;;;2.53;1.55;;;10.00;87.60;;;;;;5015282;28;20576;-87
2021/05/16 00:26:03;;;;;;;5.38;1.58;;;10.00;87.60;;;;;;5015246;28;20109;-89
2021/05/16 00:35:46;;;;;;;4.03;1.52;;;10.00;87.40;;;;;;5015867;28;20040;-89
2021/05/16 00:41:35;;;;;;;4.03;1.70;;;9.90;87.50;;;;;;5015087;28;20036;-87
2021/05/16 00:47:24;;;;;;;1.75;1.40;;;9.90;88.30;;;;;;5014648;28;20028;-87
2021/05/16 00:53:13;;;;;;;2.85;1.50;;;10.00;88.40;;;;;;5014839;28;20045;-87
2021/05/16 00:59:03;;;;;;;1.58;1.30;;;9.90;87.80;;;;;;5014462;28;20153;-87
2021/05/16 01:04:51;;;;;;;5.25;2.17;;;9.80;87.90;;;;;;5014670;28;20028;-87
2021/05/16 01:10:41;;;;;;;4.13;1.60;;;9.70;87.80;;;;;;5014607;28;20064;-87
2021/05/16 01:16:30;;;;;;;3.10;1.77;;;9.70;88.00;;;;;;5014273;28;20028;-89
2021/05/16 01:22:19;;;;;;;6.50;1.90;;;9.60;88.10;;;;;;5014547;28;20152;-88
2021/05/16 01:28:10;;;;;;;4.78;1.38;;;9.60;88.30;;;;;;5014554;28;20084;-88
2021/05/16 01:37:54;;;;;;;5.80;1.83;;;9.40;88.10;;;;;;5014657;28;20133;-91
2021/05/16 01:43:42;;;;;;;4.70;1.67;;;9.30;88.20;;;;;;5014535;28;20029;-89
2021/05/16 01:49:43;;;;;;;3.90;1.70;;;9.20;88.30;;;;;;5014380;28;20068;-89
2021/05/16 01:55:32;;;;;;;5.22;2.03;;;9.20;88.50;;;;;;5018816;28;20037;-88
2021/05/16 02:01:20;;;;;;;3.58;1.88;;;9.10;88.50;;;;;;5026785;28;20061;-90
2021/05/16 02:07:12;;;;;;;3.35;1.80;;;9.00;88.50;;;;;;5029431;28;20101;-88
2021/05/16 02:13:01;;;;;;;5.00;1.88;;;9.00;88.70;;;;;;5020795;28;20504;-89
2021/05/16 02:18:49;;;;;;;4.60;2.30;;;8.90;88.60;;;;;;5014890;28;20037;-89
2021/05/16 02:24:38;;;;;;;4.45;1.80;;;8.80;88.60;;;;;;5014243;28;20378;-90
2021/05/16 02:30:26;;;;;;;6.10;1.90;;;8.70;88.90;;;;;;5013945;28;20037;-89
2021/05/16 02:40:03;;;;;;;5.40;2.00;;;8.70;89.00;;;;;;5013674;28;20106;-88
2021/05/16 02:45:52;;;;;;;6.82;1.90;;;8.60;89.00;;;;;;5013610;28;20494;-88
2021/05/16 02:51:41;;;;;;;4.03;2.05;;;8.50;89.00;;;;;;5013582;28;20393;-87
2021/05/16 02:57:30;;;;;;;4.55;2.17;;;8.50;89.20;;;;;;5016797;28;20050;-87
2021/05/16 03:03:19;;;;;;;5.60;2.42;;;8.40;89.20;;;;;;5016941;28;20045;-88
2021/05/16 03:09:08;;;;;;;5.72;2.30;;;8.30;89.20;;;;;;5016739;28;20532;-87
2021/05/16 03:14:56;;;;;;;5.88;2.30;;;8.40;90.00;;;;;;5017045;28;20041;-90
2021/05/16 03:20:45;;;;;;;4.88;2.10;;;8.40;89.90;;;;;;5017015;28;20566;-89
2021/05/16 03:26:33;;;;;;;5.80;2.10;;;8.40;89.60;;;;;;5016568;28;20103;-89
2021/05/16 03:32:22;;;;;;;5.10;1.90;;;8.40;89.90;;;;;;5016392;28;20541;-87
2021/05/16 03:41:49;;;;;;;6.47;2.20;;;8.60;90.30;;;;;;5016163;28;20084;-88
2021/05/16 03:47:39;;;;;;;5.40;2.22;;;8.70;90.30;;;;;;5015986;28;20447;-88
2021/05/16 03:53:28;;;;;;;4.18;2.22;;;8.80;90.50;;;;;;5015838;28;20517;-88
2021/05/16 03:59:17;;;;;;;6.40;2.13;;;8.90;90.60;;;;;;5015682;28;20092;-88
2021/05/16 04:05:05;;;;;;;5.20;2.35;;;9.10;90.60;;;;;;5015822;28;20048;-88
2021/05/16 04:10:54;;;;;;;3.83;1.80;;;9.20;90.60;;;;;;5015532;28;20536;-86
2021/05/16 04:16:42;;;;;;;3.75;1.92;;;9.30;90.60;;;;;;5015289;28;20025;-87
2021/05/16 04:22:32;;;;;;;4.95;2.08;;;9.40;90.70;;;;;;5015133;28;20036;-86
2021/05/16 04:28:20;;;;;;;4.13;1.92;;;9.50;90.70;;;;;;5015384;28;20040;-87
2021/05/16 04:34:09;;;;;;;5.60;2.08;;;9.60;90.70;;;;;;5015262;28;20088;-88
2021/05/16 04:43:46;;;;;;;5.70;1.90;;;9.80;90.80;;;;;;5015185;28;20449;-89
2021/05/16 04:49:37;;;;;;;4.68;1.77;;;9.90;90.90;;;;;;5014965;28;20033;-88
2021/05/16 04:55:26;;;;;;;4.70;2.00;;;10.20;91.20;;;;;;5009890;28;20473;-87
2021/05/16 05:01:15;;;;;;;3.40;1.80;;;10.40;91.10;;;;;;5014746;28;20045;-87
2021/05/16 05:07:06;;;;;;;3.95;1.90;;;10.60;91.30;;;;;;5014563;28;20037;-87
2021/05/16 05:12:55;;;;;;;3.80;1.85;;;10.70;91.00;;;;;;5014371;28;20037;-88
2021/05/16 05:18:44;;;;;;;5.43;2.10;;;10.70;90.60;;;;;;5013833;28;20112;-88
2021/05/16 05:24:33;;;;;;;3.90;1.90;;;10.70;90.70;;;;;;5014492;28;20033;-88
2021/05/16 05:30:24;;;;;;;3.28;1.70;;;10.60;90.70;;;;;;5014012;28;20398;-85
2021/05/16 05:36:13;;;;;;;4.68;1.90;;;10.70;91.10;;;;;;5013892;28;20080;-85
2021/05/16 05:45:55;;;;;;;2.88;1.60;;;10.90;91.00;;;;;;5014043;28;20091;-85
2021/05/16 05:51:44;;;;;;;2.22;1.40;;;11.00;91.00;;;;;;5013908;28;20045;-85
2021/05/16 05:57:32;;;;;;;3.22;1.70;;;11.20;91.40;;;;;;5013589;28;20489;-85
2021/05/16 06:03:21;;;;;;;3.67;1.60;;;11.70;91.70;;;;;;5013658;28;20095;-84
2021/05/16 06:09:10;;;;;;;4.13;1.70;;;11.80;91.10;;;;;;5014898;28;20060;-84
2021/05/16 06:14:59;;;;;;;3.13;1.55;;;12.00;91.30;;;;;;5013737;28;20446;-85
2021/05/16 06:20:48;;;;;;;4.38;1.73;;;12.00;91.10;;;;;;5013718;28;20041;-84
2021/05/16 06:26:41;;;;;;;3.55;1.67;;;12.10;91.30;;;;;;5013896;28;20045;-83
2021/05/16 06:32:30;;;;;;;2.17;1.60;;;12.20;91.20;;;;;;5017239;28;20131;-83
2021/05/16 06:38:19;;;;;;;3.30;1.52;;;12.40;91.40;;;;;;5017056;28;20509;-86
2021/05/16 06:48:14;;;;;;;4.63;1.65;;;12.80;91.70;;;;;;5017141;28;20479;-86
2021/05/16 06:54:08;;;;;;;5.57;1.80;;;13.20;91.90;;;;;;5016735;28;20055;-86
2021/05/16 07:00:23;;;;;;;5.90;1.70;;;13.50;91.50;;;;;;5016648;28;20057;-86
2021/05/16 07:06:12;;;;;;;15.35;8.10;;;13.80;91.30;;;;;;5016801;28;20025;-88
2021/05/16 07:12:00;;;;;;;4.88;1.95;;;13.80;91.40;;;;;;5019491;28;20133;-88
2021/05/16 07:17:55;;;;;;;4.80;1.83;;;14.00;91.30;;;;;;5016562;28;20057;-85
2021/05/16 07:23:43;;;;;;;2.50;1.67;;;14.00;91.10;;;;;;5016682;28;20378;-86
2021/05/16 07:29:34;;;;;;;5.18;1.98;;;14.20;91.80;;;;;;5016251;28;20088;-85
2021/05/16 07:35:22;;;;;;;2.47;1.70;;;14.70;91.80;;;;;;5016332;28;20077;-84
2021/05/16 07:41:11;;;;;;;4.03;1.67;;;15.00;91.90;;;;;;5015708;28;20053;-84
2021/05/16 07:51:01;;;;;;;7.97;2.50;;;14.90;90.60;;;;;;5016290;28;20113;-84
2021/05/16 07:56:49;;;;;;;5.82;1.60;;;14.70;90.90;;;;;;5015928;28;20076;-83
2021/05/16 08:02:41;;;;;;;1.73;1.45;;;14.50;90.30;;;;;;5015913;28;20072;-83
2021/05/16 08:08:29;;;;;;;1.75;1.20;;;14.50;91.60;;;;;;5015431;28;20371;-84
2021/05/16 08:14:17;;;;;;;1.45;1.10;;;15.00;92.10;;;;;;5015522;28;20084;-83
2021/05/16 08:20:11;;;;;;;2.10;1.40;;;15.40;91.70;;;;;;5015266;28;20041;-84
2021/05/16 08:26:08;;;;;;;1.60;0.90;;;16.00;92.20;;;;;;5015083;28;20112;-88
2021/05/16 08:31:58;;;;;;;3.08;1.20;;;16.40;91.80;;;;;;5015156;28;20604;-84
2021/05/16 08:37:52;;;;;;;8.68;1.88;;;16.20;90.50;;;;;;5014818;28;20052;-86
2021/05/16 08:43:41;;;;;;;2.15;1.30;;;16.00;90.90;;;;;;5014933;28;20044;-86
2021/05/16 08:53:30;;;;;;;3.35;1.27;;;16.60;91.10;;;;;;5014314;28;20117;-84
2021/05/16 08:59:23;;;;;;;1.90;1.23;;;16.70;90.60;;;;;;5014499;28;20398;-85
2021/05/16 09:05:28;;;;;;;2.95;1.08;;;16.70;90.10;;;;;;5014908;28;20493;-86
2021/05/16 09:11:22;;;;;;;5.18;1.67;;;16.40;90.00;;;;;;5014591;28;20465;-85
2021/05/16 09:17:25;;;;;;;3.35;1.10;;;16.50;91.00;;;;;;5014618;28;20064;-85
2021/05/16 09:23:13;;;;;;;1.65;1.10;;;17.10;90.40;;;;;;5014357;28;20080;-85
2021/05/16 09:29:32;;;;;;;0.90;0.90;;;17.00;90.20;;;;;;5014244;28;20394;-86
2021/05/16 09:36:11;;;;;;;2.70;1.35;;;17.10;89.60;;;;;;5013974;28;20036;-88
2021/05/16 09:42:00;;;;;;;0.95;0.95;;;16.50;88.10;;;;;;5014082;28;20041;-84
2021/05/16 09:47:49;;;;;;;2.65;1.50;;;16.20;89.00;;;;;;5015842;28;20025;-85
2021/05/16 09:54:03;;;;;;;3.40;1.33;;;16.80;91.00;;;;;;5014056;28;20041;-85
2021/05/16 09:59:54;;;;;;;2.95;1.05;;;17.60;91.00;;;;;;5013631;28;20040;-85
2021/05/16 10:06:04;;;;;;;2.03;1.27;;;17.80;90.50;;;;;;5017380;28;20099;-87
2021/05/16 10:11:56;;;;;;;2.28;1.15;;;17.70;88.10;;;;;;5019626;28;20076;-86
2021/05/16 10:17:59;;;;;;;3.42;1.30;;;17.90;90.50;;;;;;5019641;28;20044;-87
2021/05/16 10:24:05;;;;;;;1.88;0.88;;;18.30;90.30;;;;;;5017591;28;20037;-85
2021/05/16 10:30:08;;;;;;;0.88;0.82;;;18.30;89.00;;;;;;5017513;28;20414;-89
2021/05/16 10:35:57;;;;;;;3.15;1.20;;;18.80;88.90;;;;;;5017562;28;20037;-86
2021/05/16 10:42:11;;;;;;;6.05;1.23;;;18.50;88.00;;;;;;5017278;28;20068;-85
2021/05/16 10:48:20;;;;;;;2.40;1.25;;;18.50;88.30;;;;;;5017281;28;20033;-85
2021/05/16 10:54:31;;;;;;;2.40;1.60;;;18.90;90.40;;;;;;5017088;28;20041;-85
2021/05/16 11:00:22;;;;;;;2.58;1.10;;;19.70;88.40;;;;;;5016751;28;20394;-85
2021/05/16 11:06:13;;;;;;;2.30;0.90;;;18.40;79.10;;;;;;5016870;28;20069;-87
2021/05/16 11:19:15;;;;;;;11.57;3.58;;;13.30;82.70;;;;;;4911556;29;20086;-88
2021/05/16 11:25:32;;;;;;;10.63;2.38;;;13.40;87.30;;;;;;4956252;29;20037;-87
2021/05/16 11:31:24;;;;;;;4.53;1.80;;;14.30;89.10;;;;;;4956066;29;19917;-87
2021/05/16 11:37:20;;;;;;;2.88;1.58;;;15.40;91.90;;;;;;4955577;29;20038;-87
2021/05/16 11:43:14;;;;;;;5.70;1.52;;;17.00;91.20;;;;;;4955767;29;20061;-87
2021/05/16 11:49:12;;;;;;;4.68;1.80;;;18.20;91.30;;;;;;5015189;28;20177;-87
2021/05/16 11:55:09;;;;;;;7.53;2.50;;;19.60;91.40;;;;;;5015675;28;20092;-87
2021/05/16 12:01:01;;;;;;;8.30;2.70;;;21.10;91.70;;;;;;5015438;28;20033;-87
2021/05/16 12:06:54;;;;;;;3.20;1.52;;;22.10;90.80;;;;;;5015663;28;20040;-87
2021/05/16 12:12:43;;;;;;;3.70;1.55;;;23.60;92.70;;;;;;5015298;28;20112;-87
2021/05/16 12:18:35;;;;;;;3.70;1.60;;;25.00;92.40;;;;;;5015311;28;20092;-86
2021/05/16 12:24:26;;;;;;;2.13;1.33;;;25.90;92.40;;;;;;5015338;28;20037;-86
2021/05/16 12:30:17;;;;;;;3.92;1.50;;;27.20;90.90;;;;;;5015299;28;20382;-87
2021/05/16 12:36:07;;;;;;;5.05;1.63;;;27.40;95.00;;;;;;5015224;28;20093;-86
2021/05/16 12:41:56;;;;;;;4.65;1.15;;;27.50;90.70;;;;;;5014782;28;20121;-86
2021/05/16 12:47:55;;;;;;;3.28;1.50;;;26.90;93.50;;;;;;5014752;28;20105;-86
2021/05/16 12:53:43;;;;;;;2.47;1.33;;;30.40;98.20;;;;;;5014839;28;20083;-86
2021/05/16 12:59:39;;;;;;;4.57;2.05;;;32.70;95.90;;;;;;5014509;28;20100;-86
2021/05/16 13:05:27;;;;;;;4.35;1.50;;;34.80;94.60;;;;;;5014653;28;20037;-85
2021/05/16 13:11:16;;;;;;;2.53;1.33;;;34.90;90.70;;;;;;5014593;28;20117;-85
2021/05/16 13:17:16;;;;;;;2.13;1.08;;;33.80;89.80;;;;;;5014606;28;20062;-85
2021/05/16 13:23:28;;;;;;;1.98;1.80;;;33.20;92.70;;;;;;5014694;28;20037;-86
2021/05/16 13:29:16;;;;;;;1.85;1.00;;;34.50;92.60;;;;;;5014869;28;20037;-86
2021/05/16 13:35:06;;;;;;;1.48;1.35;;;33.80;83.70;;;;;;5014458;28;20100;-85
2021/05/16 13:40:58;;;;;;;4.75;1.35;;;31.80;81.90;;;;;;5013789;28;20077;-85
2021/05/16 13:46:47;;;;;;;2.42;1.13;;;30.30;86.30;;;;;;5014155;28;20025;-84
2021/05/16 13:56:41;;;;;;;2.70;1.30;;;29.80;84.10;;;;;;5014362;28;20446;-86
2021/05/16 14:02:29;;;;;;;4.15;1.02;;;27.80;83.40;;;;;;5013969;28;20060;-85
2021/05/16 14:08:20;;;;;;;4.18;1.50;;;25.70;82.40;;;;;;5013830;28;20125;-83
2021/05/16 14:14:09;;;;;;;3.33;1.17;;;23.90;84.40;;;;;;5013905;28;20033;-83
2021/05/16 14:19:58;;;;;;;5.50;1.77;;;22.80;87.60;;;;;;5013565;28;20504;-82
2021/05/16 14:25:46;;;;;;;3.17;1.67;;;25.70;95.00;;;;;;5013442;28;20068;-83
2021/05/16 14:31:35;;;;;;;3.72;1.65;;;30.40;96.80;;;;;;5013658;28;20475;-85
2021/05/16 14:37:24;;;;;;;3.85;1.08;;;32.80;90.50;;;;;;5013613;28;20489;-82
2021/05/16 14:43:15;;;;;;;3.67;1.55;;;32.40;86.60;;;;;;5013621;28;20533;-82
2021/05/16 14:49:04;;;;;;;2.22;1.13;;;32.30;81.50;;;;;;5013579;28;20029;-84
2021/05/16 14:58:54;;;;;;;4.07;1.55;;;33.60;95.60;;;;;;5016915;28;20096;-84
2021/05/16 15:04:43;;;;;;;4.45;1.60;;;34.40;79.10;;;;;;5016892;28;20113;-83
2021/05/16 15:10:32;;;;;;;3.05;1.60;;;35.00;77.30;;;;;;5016759;28;20113;-84
2021/05/16 15:16:20;;;;;;;3.70;1.15;;;33.10;75.60;;;;;;5016674;28;20068;-84
2021/05/16 15:22:10;;;;;;;4.88;1.58;;;30.80;77.00;;;;;;5016234;28;20072;-84
2021/05/16 15:28:00;;;;;;;4.22;1.27;;;28.40;73.10;;;;;;5016182;28;20110;-84
2021/05/16 15:33:49;;;;;;;4.95;1.75;;;26.40;75.10;;;;;;5016346;28;20045;-83
2021/05/16 15:39:38;;;;;;;4.60;1.38;;;24.90;78.20;;;;;;5015891;28;20053;-82
2021/05/16 15:45:26;;;;;;;5.88;1.77;;;24.00;81.00;;;;;;5016495;28;20033;-82
2021/05/16 15:51:14;;;;;;;2.28;1.05;;;23.60;83.50;;;;;;5015838;28;20528;-82
2021/05/16 16:01:00;;;;;;;3.38;1.70;;;23.30;83.20;;;;;;5015905;28;20210;-82
2021/05/16 16:06:49;;;;;;;4.03;1.60;;;22.60;84.90;;;;;;5015505;28;20496;-84
2021/05/16 16:12:39;;;;;;;6.57;2.47;;;22.50;86.40;;;;;;5015394;28;20064;-83
2021/05/16 16:18:29;;;;;;;6.30;1.95;;;22.50;86.60;;;;;;5015234;28;20207;-84
2021/05/16 16:24:17;;;;;;;2.25;1.10;;;22.70;87.60;;;;;;5015333;28;20088;-84
2021/05/16 16:30:08;;;;;;;4.15;1.10;;;22.00;83.50;;;;;;5016333;28;20041;-82
2021/05/16 16:35:58;;;;;;;2.58;1.30;;;21.20;84.80;;;;;;5015224;28;20088;-82
2021/05/16 16:41:49;;;;;;;3.65;1.25;;;20.40;85.50;;;;;;5015217;28;20076;-82
2021/05/16 16:47:38;;;;;;;4.30;1.65;;;20.00;86.20;;;;;;5014767;28;20033;-84
2021/05/16 16:53:26;;;;;;;1.80;1.17;;;19.80;88.40;;;;;;5014692;28;20497;-79
2021/05/16 17:03:10;;;;;;;4.43;1.40;;;20.80;92.60;;;;;;5014584;28;20104;-84
2021/05/16 17:09:03;;;;;;;2.45;1.13;;;21.20;87.00;;;;;;5014653;28;20044;-85
2021/05/16 17:14:54;;;;;;;1.65;0.95;;;20.40;85.80;;;;;;5013687;28;20021;-83
2021/05/16 17:20:46;;;;;;;3.00;1.20;;;19.90;87.10;;;;;;5014348;28;20056;-84
2021/05/16 17:26:35;;;;;;;3.33;1.40;;;19.80;88.40;;;;;;5013966;28;20449;-83
2021/05/16 17:32:24;;;;;;;3.70;1.83;;;20.70;91.60;;;;;;5013976;28;20040;-83
2021/05/16 17:38:13;;;;;;;2.60;1.40;;;21.90;90.80;;;;;;5014061;28;20076;-83
2021/05/16 17:44:02;;;;;;;2.70;1.42;;;21.20;85.30;;;;;;5013839;28;20084;-83
2021/05/16 17:49:50;;;;;;;4.82;2.30;;;20.00;84.80;;;;;;5015277;28;20370;-83
2021/05/16 17:55:39;;;;;;;3.08;2.00;;;19.20;86.30;;;;;;5014153;28;20105;-83
2021/05/16 18:05:22;;;;;;;3.28;1.40;;;18.50;88.20;;;;;;5013935;28;20153;-83
2021/05/16 18:11:10;;;;;;;1.70;1.23;;;18.10;88.10;;;;;;5013902;28;20025;-83
2021/05/16 18:16:58;;;;;;;14.65;8.15;;;17.60;87.60;;;;;;5013478;28;20501;-83
2021/05/16 18:22:49;;;;;;;3.15;1.50;;;17.00;87.50;;;;;;5013748;28;20045;-83
2021/05/16 18:28:38;;;;;;;3.13;1.60;;;16.50;88.00;;;;;;5017527;28;20387;-84
2021/05/16 18:34:29;;;;;;;4.00;1.30;;;16.10;88.30;;;;;;5017215;28;20038;-85
2021/05/16 18:40:17;;;;;;;3.67;1.50;;;15.70;88.60;;;;;;5017380;28;20045;-84
2021/05/16 18:46:06;;;;;;;2.35;1.60;;;15.40;89.10;;;;;;5017279;28;20032;-84
2021/05/16 18:51:54;;;;;;;3.65;1.50;;;15.20;89.20;;;;;;5017862;28;20036;-85
2021/05/16 18:57:48;;;;;;;2.95;1.58;;;15.10;90.20;;;;;;5017936;28;20141;-86
2021/05/16 19:07:32;;;;;;;5.07;1.83;;;14.80;90.00;;;;;;5018057;28;20048;-85
2021/05/16 19:13:21;;;;;;;5.53;1.60;;;14.50;90.00;;;;;;5017046;28;20068;-86
2021/05/16 19:19:08;;;;;;;2.33;1.23;;;14.30;90.10;;;;;;5016411;28;20414;-86
2021/05/16 19:24:57;;;;;;;2.58;1.55;;;14.10;90.20;;;;;;5016348;28;20087;-86
2021/05/16 19:30:47;;;;;;;2.90;1.40;;;13.90;90.30;;;;;;5016366;28;20565;-84
2021/05/16 19:36:36;;;;;;;2.90;1.40;;;13.70;90.30;;;;;;5015754;28;20029;-88
2021/05/16 19:42:29;;;;;;;2.33;1.40;;;13.60;90.40;;;;;;5016250;28;20048;-88
2021/05/16 19:48:18;;;;;;;4.32;1.70;;;13.40;90.30;;;;;;5016147;28;20493;-86
2021/05/16 19:54:07;;;;;;;4.80;2.20;;;13.40;90.40;;;;;;5016036;28;20092;-86
2021/05/16 19:59:56;;;;;;;4.22;1.60;;;13.20;90.60;;;;;;5015592;28;20482;-86
2021/05/16 20:09:38;;;;;;;1.45;1.15;;;13.00;90.70;;;;;;5015795;28;20139;-86
2021/05/16 20:15:27;;;;;;;2.88;1.20;;;12.90;90.70;;;;;;5015293;28;20029;-86
2021/05/16 20:21:16;;;;;;;3.75;1.65;;;12.80;90.70;;;;;;5015580;28;20096;-86
2021/05/16 20:27:05;;;;;;;1.90;1.23;;;12.70;90.80;;;;;;5015469;28;20041;-86
2021/05/16 20:32:56;;;;;;;2.05;1.27;;;12.60;90.80;;;;;;5015227;28;20033;-85
2021/05/16 20:38:45;;;;;;;1.88;1.42;;;12.40;90.70;;;;;;5015127;28;20103;-87
2021/05/16 20:44:33;;;;;;;4.63;1.30;;;12.30;90.80;;;;;;5015111;28;20037;-84
2021/05/16 20:50:24;;;;;;;2.85;1.42;;;12.20;90.90;;;;;;5014102;28;20029;-84
2021/05/16 20:56:12;;;;;;;1.15;1.10;;;12.10;91.00;;;;;;5014676;28;20436;-84
2021/05/16 21:02:01;;;;;;;3.33;1.67;;;12.10;91.10;;;;;;5014511;28;20477;-84
2021/05/16 21:11:43;;;;;;;2.33;1.50;;;12.10;91.30;;;;;;5014707;28;20382;-85
2021/05/16 21:17:32;;;;;;;1.52;1.40;;;12.10;91.40;;;;;;5014260;28;20076;-85
2021/05/16 21:23:21;;;;;;;2.88;1.40;;;12.10;91.40;;;;;;5014241;28;20032;-85
2021/05/16 21:29:10;;;;;;;2.65;1.80;;;12.20;91.60;;;;;;5014132;28;20080;-85
2021/05/16 21:34:58;;;;;;;1.92;1.20;;;12.20;91.60;;;;;;5014266;28;20045;-85
2021/05/16 21:40:47;;;;;;;1.75;1.23;;;12.20;91.60;;;;;;5013968;28;20087;-83
2021/05/16 21:46:37;;;;;;;1.50;1.10;;;12.30;91.60;;;;;;5014154;28;20049;-83
2021/05/16 21:52:25;;;;;;;1.20;1.02;;;12.20;91.60;;;;;;5013868;28;20041;-83
2021/05/16 21:58:15;;;;;;;1.17;1.05;;;12.20;91.60;;;;;;5013711;28;20093;-84
2021/05/16 22:04:04;;;;;;;1.58;1.20;;;12.20;91.60;;;;;;5013776;28;20029;-84
2021/05/16 22:13:48;;;;;;;1.83;1.30;;;12.20;91.80;;;;;;5013923;28;20493;-84
2021/05/16 22:19:37;;;;;;;2.05;1.20;;;12.20;91.80;;;;;;5013512;28;20137;-84
2021/05/16 22:25:26;;;;;;;1.45;0.90;;;12.20;91.80;;;;;;5013594;28;20025;-84
2021/05/16 22:31:15;;;;;;;1.20;1.10;;;12.20;91.80;;;;;;5013710;28;20084;-84
2021/05/16 22:37:03;;;;;;;1.75;1.02;;;12.20;91.90;;;;;;5013450;28;20040;-84
2021/05/16 22:42:53;;;;;;;0.98;0.98;;;12.20;91.90;;;;;;5013670;28;20037;-84
2021/05/16 22:48:42;;;;;;;1.55;1.17;;;12.20;91.90;;;;;;5013614;28;20386;-84
2021/05/16 22:54:30;;;;;;;1.40;1.00;;;12.20;91.90;;;;;;5013246;28;20449;-84
2021/05/16 23:00:41;;;;;;;0.90;0.90;;;12.20;92.00;;;;;;5013209;28;20037;-84
2021/05/16 23:06:30;;;;;;;2.92;1.10;;;12.30;92.10;;;;;;5013177;28;20028;-84
2021/05/16 23:16:18;;;;;;;0.90;0.90;;;12.20;91.80;;;;;;5021694;28;20382;-84
2021/05/16 23:22:07;;;;;;;1.15;1.02;;;12.00;91.60;;;;;;5016810;28;20112;-84
2021/05/16 23:27:55;;;;;;;2.30;1.33;;;11.80;91.60;;;;;;5016354;28;20029;-84
2021/05/16 23:33:44;;;;;;;0.93;0.93;;;11.70;91.60;;;;;;5016487;28;20493;-84
2021/05/16 23:39:33;;;;;;;1.30;1.20;;;11.60;91.60;;;;;;5016123;28;20493;-84
2021/05/16 23:45:23;;;;;;;2.15;1.40;;;11.40;91.60;;;;;;5016007;28;20033;-84
2021/05/16 23:51:14;;;;;;;1.83;1.17;;;11.40;91.90;;;;;;5015898;28;20087;-85
2021/05/16 23:57:03;;;;;;;1.45;1.10;;;11.40;92.00;;;;;;5015756;28;20040;-85
